createdAt,value
2017-01-13T00:00:50.933Z,6.17
2017-01-13T00:01:50.947Z,6.12
2017-01-13T00:02:50.955Z,6.17
2017-01-13T00:03:50.970Z,6.16
2017-01-13T00:04:50.982Z,6.11
2017-01-13T00:05:50.995Z,6.08
2017-01-13T00:06:51.005Z,6.11
2017-01-13T00:07:51.020Z,6.11
2017-01-13T00:08:51.031Z,6.08
2017-01-13T00:09:51.037Z,6.16
2017-01-13T00:10:51.053Z,6.19
2017-01-13T00:11:51.064Z,6.07
2017-01-13T00:12:51.076Z,6.19
2017-01-13T00:13:51.089Z,6.14
2017-01-13T00:14:51.100Z,6.09
2017-01-13T00:15:51.115Z,6.16
2017-01-13T00:16:51.129Z,6.16
2017-01-13T00:17:51.143Z,6.16
2017-01-13T00:18:51.145Z,6.07
2017-01-13T00:19:51.157Z,6.11
2017-01-13T00:20:51.171Z,6.11
2017-01-13T00:21:51.180Z,6.07
2017-01-13T00:22:51.195Z,6.12
2017-01-13T00:23:51.209Z,6.16
2017-01-13T00:24:51.228Z,6.07
2017-01-13T00:25:51.235Z,6.04
2017-01-13T00:26:51.249Z,6.11
2017-01-13T00:27:51.256Z,6.05
2017-01-13T00:28:51.271Z,6.07
2017-01-13T00:29:51.284Z,6.07
2017-01-13T00:30:51.292Z,6.04
2017-01-13T00:31:51.307Z,6.12
2017-01-13T00:32:51.317Z,6.16
2017-01-13T00:33:51.385Z,6.09
2017-01-13T00:34:51.339Z,6.07
2017-01-13T00:35:51.356Z,6.08
2017-01-13T00:36:51.368Z,6.02
2017-01-13T00:37:51.374Z,6.01
2017-01-13T00:38:51.390Z,6.04
2017-01-13T00:39:51.404Z,6.01
2017-01-13T00:40:51.417Z,6.05
2017-01-13T00:41:51.425Z,6.01
2017-01-13T00:42:51.438Z,6.01
2017-01-13T00:43:51.500Z,6.04
2017-01-13T00:44:51.464Z,6.01
2017-01-13T00:45:51.473Z,6.01
2017-01-13T00:46:51.481Z,6.14
2017-01-13T00:47:51.892Z,6.05
2017-01-13T00:48:51.509Z,6.05
2017-01-13T00:49:51.520Z,5.98
2017-01-13T00:50:51.532Z,6.11
2017-01-13T00:51:51.543Z,5.98
2017-01-13T00:52:51.561Z,6.02
2017-01-13T00:53:51.568Z,6.02
2017-01-13T00:54:51.578Z,6.05
2017-01-13T00:55:51.591Z,6.02
2017-01-13T00:56:51.601Z,5.97
2017-01-13T00:57:51.621Z,5.98
2017-01-13T00:58:51.628Z,6.02
2017-01-13T00:59:51.647Z,5.98
2017-01-13T01:00:51.652Z,5.99
2017-01-13T01:01:51.660Z,5.98
2017-01-13T01:02:51.680Z,5.99
2017-01-13T01:03:51.689Z,6.02
2017-01-13T01:04:51.699Z,5.93
2017-01-13T01:05:51.712Z,6.05
2017-01-13T01:06:51.722Z,6.02
2017-01-13T01:07:51.741Z,5.97
2017-01-13T01:08:51.752Z,6.01
2017-01-13T01:09:51.764Z,6.02
2017-01-13T01:10:51.766Z,6.02
2017-01-13T01:11:51.782Z,6.05
2017-01-13T01:12:51.806Z,5.94
2017-01-13T01:13:51.806Z,6.04
2017-01-13T01:14:51.827Z,5.98
2017-01-13T01:15:51.833Z,5.98
2017-01-13T01:16:51.839Z,5.84
2017-01-13T01:17:51.852Z,6.04
2017-01-13T01:18:51.867Z,5.98
2017-01-13T01:19:51.878Z,6.02
2017-01-13T01:20:51.888Z,5.9
2017-01-13T01:21:51.906Z,5.86
2017-01-13T01:22:51.946Z,6.02
2017-01-13T01:23:52.120Z,5.97
2017-01-13T01:24:51.938Z,6.02
2017-01-13T01:25:51.943Z,6.05
2017-01-13T01:26:51.963Z,5.97
2017-01-13T01:27:51.979Z,6.01
2017-01-13T01:28:51.985Z,5.9
2017-01-13T01:29:51.995Z,5.97
2017-01-13T01:30:52.010Z,5.97
2017-01-13T01:31:52.021Z,5.94
2017-01-13T01:32:52.057Z,5.98
2017-01-13T01:33:52.043Z,5.97
2017-01-13T01:34:52.056Z,6.01
2017-01-13T01:35:52.066Z,5.94
2017-01-13T01:36:52.080Z,5.91
2017-01-13T01:37:52.094Z,5.97
2017-01-13T01:38:52.107Z,5.94
2017-01-13T01:39:52.113Z,5.93
2017-01-13T01:40:52.129Z,5.94
2017-01-13T01:41:52.137Z,5.98
2017-01-13T01:42:52.153Z,5.97
2017-01-13T01:43:52.158Z,5.97
2017-01-13T01:44:52.174Z,5.98
2017-01-13T01:45:52.191Z,6.01
2017-01-13T01:46:52.197Z,5.99
2017-01-13T01:47:52.211Z,5.9
2017-01-13T01:48:52.224Z,5.94
2017-01-13T01:49:52.236Z,5.98
2017-01-13T01:50:52.243Z,5.87
2017-01-13T01:51:52.258Z,5.99
2017-01-13T01:52:52.663Z,5.91
2017-01-13T01:53:52.281Z,5.93
2017-01-13T01:54:52.293Z,5.9
2017-01-13T01:55:52.305Z,5.91
2017-01-13T01:56:52.317Z,5.98
2017-01-13T01:57:52.329Z,5.89
2017-01-13T01:58:52.339Z,5.93
2017-01-13T01:59:52.355Z,5.9
2017-01-13T02:00:52.370Z,5.94
2017-01-13T02:01:52.375Z,5.94
2017-01-13T02:02:52.398Z,5.84
2017-01-13T02:03:52.402Z,5.94
2017-01-13T02:04:52.413Z,5.94
2017-01-13T02:05:52.424Z,5.93
2017-01-13T02:06:52.471Z,5.94
2017-01-13T02:07:52.449Z,5.94
2017-01-13T02:08:52.464Z,5.94
2017-01-13T02:09:52.471Z,5.93
2017-01-13T02:10:52.487Z,5.97
2017-01-13T02:11:52.494Z,5.94
2017-01-13T02:12:52.504Z,5.91
2017-01-13T02:13:52.522Z,5.94
2017-01-13T02:14:52.607Z,5.94
2017-01-13T02:15:52.543Z,5.93
2017-01-13T02:16:52.554Z,5.9
2017-01-13T02:17:52.565Z,5.9
2017-01-13T02:18:52.584Z,5.93
2017-01-13T02:19:52.642Z,5.9
2017-01-13T02:20:52.612Z,5.93
2017-01-13T02:21:52.614Z,5.93
2017-01-13T02:22:52.628Z,5.91
2017-01-13T02:23:52.636Z,5.9
2017-01-13T02:24:52.650Z,5.91
2017-01-13T02:25:52.703Z,5.9
2017-01-13T02:26:52.675Z,5.9
2017-01-13T02:27:52.686Z,5.8
2017-01-13T02:28:53.095Z,5.87
2017-01-13T02:29:52.707Z,5.93
2017-01-13T02:30:52.726Z,5.93
2017-01-13T02:31:52.735Z,5.93
2017-01-13T02:32:52.744Z,5.93
2017-01-13T02:33:52.757Z,5.93
2017-01-13T02:34:52.769Z,5.91
2017-01-13T02:35:52.776Z,5.9
2017-01-13T02:36:52.795Z,5.97
2017-01-13T02:37:52.932Z,5.86
2017-01-13T02:38:52.815Z,6.02
2017-01-13T02:39:52.832Z,5.97
2017-01-13T02:40:52.836Z,5.87
2017-01-13T02:41:52.854Z,5.87
2017-01-13T02:42:52.865Z,5.93
2017-01-13T02:43:52.873Z,5.87
2017-01-13T02:44:52.938Z,5.87
2017-01-13T02:45:52.893Z,5.94
2017-01-13T02:46:52.909Z,5.97
2017-01-13T02:47:52.920Z,5.87
2017-01-13T02:48:52.934Z,5.94
2017-01-13T02:49:52.971Z,5.9
2017-01-13T02:50:53.051Z,5.87
2017-01-13T02:51:53.188Z,5.94
2017-01-13T02:52:53.087Z,5.91
2017-01-13T02:53:52.995Z,5.93
2017-01-13T02:54:53.004Z,5.89
2017-01-13T02:55:53.014Z,5.93
2017-01-13T02:56:53.025Z,5.84
2017-01-13T02:57:53.043Z,5.82
2017-01-13T02:58:53.054Z,5.82
2017-01-13T02:59:53.062Z,5.82
2017-01-13T03:00:53.073Z,5.84
2017-01-13T03:01:53.089Z,5.76
2017-01-13T03:02:53.102Z,5.82
2017-01-13T03:03:53.117Z,5.84
2017-01-13T03:04:53.126Z,5.79
2017-01-13T03:05:53.135Z,5.82
2017-01-13T03:06:53.145Z,5.82
2017-01-13T03:07:53.158Z,5.8
2017-01-13T03:08:53.170Z,5.8
2017-01-13T03:09:53.177Z,5.79
2017-01-13T03:10:53.190Z,5.79
2017-01-13T03:11:53.204Z,5.73
2017-01-13T03:12:53.212Z,5.79
2017-01-13T03:13:53.226Z,5.82
2017-01-13T03:14:53.241Z,5.76
2017-01-13T03:15:53.252Z,5.76
2017-01-13T03:16:53.272Z,5.73
2017-01-13T03:17:53.275Z,5.8
2017-01-13T03:18:53.287Z,5.76
2017-01-13T03:19:53.301Z,5.8
2017-01-13T03:20:53.308Z,5.75
2017-01-13T03:21:53.327Z,5.71
2017-01-13T03:22:53.333Z,5.69
2017-01-13T03:23:53.343Z,5.75
2017-01-13T03:24:53.353Z,5.73
2017-01-13T03:25:53.368Z,5.79
2017-01-13T03:26:53.379Z,5.76
2017-01-13T03:27:53.394Z,5.82
2017-01-13T03:28:53.432Z,5.76
2017-01-13T03:29:53.419Z,5.82
2017-01-13T03:30:53.431Z,5.76
2017-01-13T03:31:53.443Z,5.71
2017-01-13T03:32:53.449Z,5.73
2017-01-13T03:33:53.459Z,5.73
2017-01-13T03:34:53.471Z,5.83
2017-01-13T03:35:53.489Z,5.75
2017-01-13T03:36:53.502Z,5.8
2017-01-13T03:37:53.506Z,5.79
2017-01-13T03:38:53.524Z,5.83
2017-01-13T03:39:53.536Z,5.76
2017-01-13T03:40:53.542Z,5.76
2017-01-13T03:41:53.554Z,5.82
2017-01-13T03:42:53.570Z,5.86
2017-01-13T03:43:53.583Z,5.82
2017-01-13T03:44:53.613Z,5.87
2017-01-13T03:45:53.609Z,5.87
2017-01-13T03:46:53.613Z,5.8
2017-01-13T03:47:53.630Z,5.9
2017-01-13T03:48:53.638Z,5.9
2017-01-13T03:49:53.650Z,5.87
2017-01-13T03:50:53.660Z,5.87
2017-01-13T03:51:53.686Z,5.87
2017-01-13T03:52:53.682Z,5.87
2017-01-13T03:53:53.700Z,5.9
2017-01-13T03:54:53.710Z,5.89
2017-01-13T03:55:53.719Z,5.99
2017-01-13T03:56:53.727Z,5.89
2017-01-13T03:57:53.749Z,5.89
2017-01-13T03:58:53.755Z,5.87
2017-01-13T03:59:53.764Z,5.91
2017-01-13T04:00:53.783Z,5.97
2017-01-13T04:01:53.786Z,5.97
2017-01-13T04:02:53.798Z,5.93
2017-01-13T04:03:53.813Z,5.91
2017-01-13T04:04:53.822Z,5.91
2017-01-13T04:05:53.835Z,5.89
2017-01-13T04:06:53.844Z,5.89
2017-01-13T04:07:53.861Z,5.89
2017-01-13T04:08:53.871Z,5.87
2017-01-13T04:09:53.885Z,5.84
2017-01-13T04:10:53.921Z,5.91
2017-01-13T04:11:53.903Z,5.97
2017-01-13T04:12:53.921Z,5.93
2017-01-13T04:13:53.930Z,5.98
2017-01-13T04:14:53.941Z,5.98
2017-01-13T04:15:53.952Z,5.94
2017-01-13T04:16:53.976Z,5.94
2017-01-13T04:17:53.979Z,5.89
2017-01-13T04:18:53.985Z,5.99
2017-01-13T04:19:54.005Z,5.97
2017-01-13T04:20:54.011Z,5.99
2017-01-13T04:21:54.038Z,6.01
2017-01-13T04:22:54.036Z,5.87
2017-01-13T04:23:54.051Z,6.05
2017-01-13T04:24:54.065Z,5.9
2017-01-13T04:25:54.098Z,6.02
2017-01-13T04:26:54.083Z,5.98
2017-01-13T04:27:54.095Z,6.04
2017-01-13T04:28:54.104Z,5.9
2017-01-13T04:29:54.117Z,5.97
2017-01-13T04:30:54.132Z,5.99
2017-01-13T04:31:54.145Z,6.08
2017-01-13T04:32:54.151Z,6.04
2017-01-13T04:33:54.166Z,6.04
2017-01-13T04:34:54.174Z,6.01
2017-01-13T04:35:54.188Z,6.01
2017-01-13T04:36:54.200Z,6.09
2017-01-13T04:37:54.236Z,6.02
2017-01-13T04:38:54.230Z,6.01
2017-01-13T04:39:54.232Z,6.01
2017-01-13T04:40:54.273Z,6.05
2017-01-13T04:41:54.258Z,5.98
2017-01-13T04:42:54.266Z,6.02
2017-01-13T04:43:54.285Z,6.08
2017-01-13T04:44:54.295Z,6.01
2017-01-13T04:45:54.302Z,6.11
2017-01-13T04:46:54.322Z,6.01
2017-01-13T04:48:26.405Z,6.11
2017-01-13T04:48:54.339Z,5.97
2017-01-13T04:49:54.352Z,6.07
2017-01-13T04:50:54.364Z,6.02
2017-01-13T04:51:54.374Z,6.02
2017-01-13T04:52:54.388Z,6.01
2017-01-13T04:53:54.397Z,5.94
2017-01-13T04:54:54.405Z,5.97
2017-01-13T04:55:54.445Z,6.04
2017-01-13T04:56:54.434Z,6.01
2017-01-13T04:57:54.445Z,6.01
2017-01-13T04:58:54.459Z,5.98
2017-01-13T04:59:54.465Z,6.01
2017-01-13T05:00:54.483Z,6.09
2017-01-13T05:01:54.494Z,6.01
2017-01-13T05:02:54.502Z,6.02
2017-01-13T05:03:54.515Z,5.97
2017-01-13T05:04:54.525Z,5.99
2017-01-13T05:05:54.536Z,6.01
2017-01-13T05:06:54.549Z,6.07
2017-01-13T05:07:54.562Z,6.02
2017-01-13T05:08:54.570Z,5.98
2017-01-13T05:09:54.580Z,5.97
2017-01-13T05:10:54.627Z,5.98
2017-01-13T05:11:54.609Z,5.98
2017-01-13T05:12:54.643Z,5.97
2017-01-13T05:13:54.629Z,6.01
2017-01-13T05:14:54.643Z,5.94
2017-01-13T05:15:54.654Z,5.86
2017-01-13T05:16:54.667Z,5.94
2017-01-13T05:17:54.674Z,5.94
2017-01-13T05:18:54.691Z,5.9
2017-01-13T05:19:54.700Z,5.91
2017-01-13T05:20:54.709Z,5.97
2017-01-13T05:21:54.727Z,5.91
2017-01-13T05:22:54.733Z,5.84
2017-01-13T05:23:54.746Z,5.93
2017-01-13T05:24:54.758Z,5.94
2017-01-13T05:25:54.783Z,5.98
2017-01-13T05:26:54.786Z,5.89
2017-01-13T05:27:54.795Z,5.91
2017-01-13T05:28:54.814Z,5.93
2017-01-13T05:29:54.816Z,5.9
2017-01-13T05:30:54.833Z,5.89
2017-01-13T05:31:54.840Z,5.89
2017-01-13T05:32:54.851Z,5.99
2017-01-13T05:33:54.863Z,5.89
2017-01-13T05:34:54.878Z,5.91
2017-01-13T05:35:54.901Z,5.94
2017-01-13T05:36:54.901Z,5.87
2017-01-13T05:37:54.913Z,5.89
2017-01-13T05:38:54.924Z,5.91
2017-01-13T05:39:54.940Z,5.89
2017-01-13T05:40:54.945Z,5.9
2017-01-13T05:41:54.962Z,5.87
2017-01-13T05:42:54.974Z,5.94
2017-01-13T05:43:54.986Z,5.87
2017-01-13T05:44:54.993Z,5.89
2017-01-13T05:45:55.026Z,5.84
2017-01-13T05:46:55.014Z,5.94
2017-01-13T05:47:55.030Z,5.91
2017-01-13T05:48:55.047Z,5.99
2017-01-13T05:49:55.064Z,5.98
2017-01-13T05:50:55.063Z,5.98
2017-01-13T05:51:55.076Z,6.02
2017-01-13T05:52:55.089Z,6.01
2017-01-13T05:53:55.101Z,6.04
2017-01-13T05:54:55.116Z,6.02
2017-01-13T05:55:55.123Z,5.99
2017-01-13T05:56:55.136Z,5.93
2017-01-13T05:57:55.141Z,5.99
2017-01-13T05:58:55.165Z,5.87
2017-01-13T05:59:55.168Z,5.94
2017-01-13T06:00:55.180Z,5.99
2017-01-13T06:01:55.191Z,5.87
2017-01-13T06:02:55.202Z,5.97
2017-01-13T06:03:55.215Z,5.94
2017-01-13T06:04:55.227Z,5.99
2017-01-13T06:05:55.237Z,5.98
2017-01-13T06:06:55.253Z,5.91
2017-01-13T06:07:55.269Z,6.04
2017-01-13T06:08:55.275Z,5.99
2017-01-13T06:09:55.292Z,5.94
2017-01-13T06:10:55.297Z,5.89
2017-01-13T06:11:55.314Z,5.86
2017-01-13T06:12:55.322Z,5.87
2017-01-13T06:13:55.333Z,5.94
2017-01-13T06:14:55.343Z,5.97
2017-01-13T06:15:55.362Z,5.9
2017-01-13T06:16:55.374Z,5.97
2017-01-13T06:17:55.379Z,5.91
2017-01-13T06:18:55.393Z,6.04
2017-01-13T06:19:55.402Z,5.93
2017-01-13T06:20:55.419Z,5.93
2017-01-13T06:21:55.422Z,5.97
2017-01-13T06:22:55.440Z,5.91
2017-01-13T06:23:55.451Z,5.98
2017-01-13T06:24:55.465Z,5.94
2017-01-13T06:25:55.473Z,5.93
2017-01-13T06:26:55.483Z,5.89
2017-01-13T06:27:55.499Z,5.91
2017-01-13T06:28:55.512Z,5.84
2017-01-13T06:29:55.521Z,5.99
2017-01-13T06:30:55.534Z,5.9
2017-01-13T06:31:55.548Z,5.84
2017-01-13T06:32:55.554Z,5.8
2017-01-13T06:33:55.573Z,5.91
2017-01-13T06:34:55.577Z,5.9
2017-01-13T06:35:55.593Z,5.89
2017-01-13T06:36:55.601Z,5.91
2017-01-13T06:37:55.633Z,5.89
2017-01-13T06:38:55.629Z,5.91
2017-01-13T06:39:55.634Z,5.87
2017-01-13T06:40:55.648Z,5.93
2017-01-13T06:41:55.661Z,5.84
2017-01-13T06:42:55.673Z,5.97
2017-01-13T06:43:55.682Z,5.93
2017-01-13T06:44:55.703Z,5.94
2017-01-13T06:45:55.707Z,5.91
2017-01-13T06:46:55.722Z,5.9
2017-01-13T06:47:55.732Z,5.87
2017-01-13T06:48:55.744Z,5.87
2017-01-13T06:49:55.760Z,5.91
2017-01-13T06:50:55.760Z,5.89
2017-01-13T06:51:55.778Z,5.9
2017-01-13T06:52:55.789Z,5.87
2017-01-13T06:53:55.813Z,5.93
2017-01-13T06:54:55.822Z,5.87
2017-01-13T06:55:55.826Z,5.94
2017-01-13T06:56:55.837Z,5.91
2017-01-13T06:57:55.850Z,5.87
2017-01-13T06:58:55.861Z,5.94
2017-01-13T06:59:55.871Z,5.98
2017-01-13T07:00:55.885Z,5.94
2017-01-13T07:01:55.895Z,5.87
2017-01-13T07:02:55.906Z,5.87
2017-01-13T07:03:55.921Z,5.87
2017-01-13T07:04:55.934Z,5.93
2017-01-13T07:05:55.940Z,5.87
2017-01-13T07:06:55.961Z,5.94
2017-01-13T07:07:55.975Z,5.93
2017-01-13T07:08:55.978Z,5.93
2017-01-13T07:09:55.989Z,5.93
2017-01-13T07:10:56.003Z,5.87
2017-01-13T07:11:56.015Z,5.91
2017-01-13T07:12:56.022Z,5.89
2017-01-13T07:13:56.038Z,5.89
2017-01-13T07:14:56.050Z,5.93
2017-01-13T07:15:56.058Z,5.93
2017-01-13T07:16:56.076Z,5.9
2017-01-13T07:17:56.078Z,5.84
2017-01-13T07:18:56.094Z,5.87
2017-01-13T07:19:56.105Z,5.97
2017-01-13T07:20:56.116Z,5.89
2017-01-13T07:21:56.124Z,5.94
2017-01-13T07:22:56.153Z,5.99
2017-01-13T07:23:56.158Z,5.89
2017-01-13T07:24:56.173Z,5.91
2017-01-13T07:25:56.190Z,5.84
2017-01-13T07:26:56.192Z,5.94
2017-01-13T07:27:56.198Z,5.93
2017-01-13T07:28:56.209Z,5.94
2017-01-13T07:29:56.222Z,5.9
2017-01-13T07:30:56.234Z,5.86
2017-01-13T07:31:56.246Z,5.87
2017-01-13T07:32:56.260Z,5.93
2017-01-13T07:33:56.269Z,5.9
2017-01-13T07:34:56.282Z,5.89
2017-01-13T07:35:56.295Z,5.89
2017-01-13T07:36:56.306Z,5.87
2017-01-13T07:37:56.319Z,5.9
2017-01-13T07:38:56.326Z,5.86
2017-01-13T07:39:56.343Z,5.84
2017-01-13T07:40:56.352Z,5.87
2017-01-13T07:41:56.361Z,5.87
2017-01-13T07:42:56.374Z,5.86
2017-01-13T07:43:56.383Z,5.82
2017-01-13T07:44:56.396Z,5.89
2017-01-13T07:45:56.412Z,5.86
2017-01-13T07:46:56.420Z,5.71
2017-01-13T07:47:56.439Z,5.73
2017-01-13T07:48:56.454Z,5.8
2017-01-13T07:49:56.459Z,5.75
2017-01-13T07:50:56.469Z,5.8
2017-01-13T07:51:56.481Z,5.79
2017-01-13T07:52:56.494Z,5.79
2017-01-13T07:53:56.499Z,5.79
2017-01-13T07:54:56.521Z,5.79
2017-01-13T07:55:56.528Z,5.73
2017-01-13T07:56:56.536Z,5.71
2017-01-13T07:57:56.552Z,5.75
2017-01-13T07:58:56.564Z,5.68
2017-01-13T07:59:56.575Z,5.72
2017-01-13T08:00:56.587Z,5.69
2017-01-13T08:01:56.605Z,5.79
2017-01-13T08:02:56.632Z,5.75
2017-01-13T08:03:56.632Z,5.71
2017-01-13T08:04:56.632Z,5.65
2017-01-13T08:05:56.647Z,5.59
2017-01-13T08:06:56.684Z,5.69
2017-01-13T08:07:56.689Z,5.62
2017-01-13T08:08:56.677Z,5.75
2017-01-13T08:09:56.696Z,5.65
2017-01-13T08:10:56.704Z,5.72
2017-01-13T08:11:56.718Z,5.64
2017-01-13T08:12:56.722Z,5.66
2017-01-13T08:13:56.741Z,5.65
2017-01-13T08:14:56.752Z,5.65
2017-01-13T08:15:56.764Z,5.66
2017-01-13T08:16:56.776Z,5.66
2017-01-13T08:17:56.788Z,5.64
2017-01-13T08:18:56.797Z,5.66
2017-01-13T08:19:56.808Z,5.62
2017-01-13T08:20:56.822Z,5.73
2017-01-13T08:21:56.831Z,5.61
2017-01-13T08:22:56.839Z,5.61
2017-01-13T08:23:56.859Z,5.61
2017-01-13T08:24:56.866Z,5.69
2017-01-13T08:25:56.880Z,5.62
2017-01-13T08:26:56.886Z,5.56
2017-01-13T08:27:56.908Z,5.56
2017-01-13T08:28:56.916Z,5.48
2017-01-13T08:29:56.927Z,5.59
2017-01-13T08:30:56.936Z,5.5
2017-01-13T08:31:56.950Z,5.48
2017-01-13T08:32:56.956Z,5.51
2017-01-13T08:33:56.968Z,5.51
2017-01-13T08:34:56.980Z,5.5
2017-01-13T08:35:56.994Z,5.53
2017-01-13T08:36:57.008Z,5.48
2017-01-13T08:37:57.017Z,5.47
2017-01-13T08:38:57.028Z,5.5
2017-01-13T08:39:57.038Z,5.46
2017-01-13T08:40:57.051Z,5.46
2017-01-13T08:41:57.062Z,5.43
2017-01-13T08:42:57.076Z,5.53
2017-01-13T08:43:57.087Z,5.47
2017-01-13T08:44:57.096Z,5.41
2017-01-13T08:45:57.114Z,5.5
2017-01-13T08:46:57.131Z,5.46
2017-01-13T08:47:57.138Z,5.43
2017-01-13T08:48:57.148Z,5.47
2017-01-13T08:49:57.163Z,5.48
2017-01-13T08:50:57.183Z,5.46
2017-01-13T08:51:57.183Z,5.48
2017-01-13T08:52:57.187Z,5.43
2017-01-13T08:53:57.207Z,5.39
2017-01-13T08:54:57.215Z,5.41
2017-01-13T08:55:57.221Z,5.48
2017-01-13T08:56:57.237Z,5.47
2017-01-13T08:57:57.251Z,5.44
2017-01-13T08:58:57.256Z,5.51
2017-01-13T08:59:57.272Z,5.41
2017-01-13T09:00:57.285Z,5.44
2017-01-13T09:01:57.297Z,5.5
2017-01-13T09:02:57.303Z,5.36
2017-01-13T09:03:57.317Z,5.41
2017-01-13T09:04:57.331Z,5.41
2017-01-13T09:05:57.453Z,5.38
2017-01-13T09:06:57.353Z,5.41
2017-01-13T09:07:57.362Z,5.43
2017-01-13T09:08:57.373Z,5.44
2017-01-13T09:09:57.390Z,5.43
2017-01-13T09:10:57.399Z,5.44
2017-01-13T09:11:57.409Z,5.44
2017-01-13T09:12:57.428Z,5.44
2017-01-13T09:13:57.432Z,5.47
2017-01-13T09:14:57.442Z,5.33
2017-01-13T09:15:57.461Z,5.36
2017-01-13T09:16:57.468Z,5.39
2017-01-13T09:17:57.479Z,5.33
2017-01-13T09:18:57.501Z,5.43
2017-01-13T09:19:57.510Z,5.43
2017-01-13T09:20:57.512Z,5.43
2017-01-13T09:21:57.523Z,5.32
2017-01-13T09:22:57.542Z,5.35
2017-01-13T09:23:57.551Z,5.46
2017-01-13T09:24:57.555Z,5.35
2017-01-13T09:25:57.575Z,5.41
2017-01-13T09:26:57.610Z,5.41
2017-01-13T09:27:57.591Z,5.44
2017-01-13T09:28:57.603Z,5.35
2017-01-13T09:29:57.612Z,5.47
2017-01-13T09:30:57.626Z,5.38
2017-01-13T09:31:57.640Z,5.39
2017-01-13T09:32:57.647Z,5.41
2017-01-13T09:33:57.662Z,5.43
2017-01-13T09:34:57.675Z,5.35
2017-01-13T09:35:57.679Z,5.3
2017-01-13T09:36:57.697Z,5.35
2017-01-13T09:37:57.704Z,5.44
2017-01-13T09:38:57.717Z,5.46
2017-01-13T09:39:57.737Z,5.38
2017-01-13T09:40:57.739Z,5.41
2017-01-13T09:41:57.754Z,5.39
2017-01-13T09:42:57.762Z,5.46
2017-01-13T09:43:57.779Z,5.43
2017-01-13T09:44:57.794Z,5.5
2017-01-13T09:45:57.796Z,5.48
2017-01-13T09:46:57.806Z,5.51
2017-01-13T09:47:57.851Z,5.53
2017-01-13T09:48:57.832Z,5.48
2017-01-13T09:49:57.847Z,5.56
2017-01-13T09:50:57.851Z,5.48
2017-01-13T09:51:57.863Z,5.54
2017-01-13T09:52:57.877Z,5.56
2017-01-13T09:53:57.887Z,5.5
2017-01-13T09:54:57.904Z,5.53
2017-01-13T09:55:57.915Z,5.46
2017-01-13T09:56:57.920Z,5.5
2017-01-13T09:57:57.934Z,5.53
2017-01-13T09:58:57.944Z,5.48
2017-01-13T09:59:57.955Z,5.44
2017-01-13T10:00:58.388Z,5.47
2017-01-13T10:01:58.004Z,5.44
2017-01-13T10:02:57.998Z,5.48
2017-01-13T10:03:58.002Z,5.48
2017-01-13T10:04:58.013Z,5.46
2017-01-13T10:05:58.024Z,5.47
2017-01-13T10:06:58.037Z,5.41
2017-01-13T10:07:58.047Z,5.41
2017-01-13T10:08:58.057Z,5.43
2017-01-13T10:09:58.074Z,5.39
2017-01-13T10:10:58.081Z,5.39
2017-01-13T10:11:58.095Z,5.39
2017-01-13T10:12:58.103Z,5.39
2017-01-13T10:13:58.116Z,5.41
2017-01-13T10:14:58.135Z,5.39
2017-01-13T10:15:58.138Z,5.44
2017-01-13T10:16:58.151Z,5.39
2017-01-13T10:17:58.159Z,5.44
2017-01-13T10:18:58.172Z,5.43
2017-01-13T10:19:58.193Z,5.43
2017-01-13T10:20:58.199Z,5.43
2017-01-13T10:21:58.213Z,5.43
2017-01-13T10:22:58.220Z,5.44
2017-01-13T10:23:58.232Z,5.47
2017-01-13T10:24:58.242Z,5.43
2017-01-13T10:25:58.254Z,5.35
2017-01-13T10:26:58.259Z,5.35
2017-01-13T10:27:58.281Z,5.3
2017-01-13T10:28:58.289Z,5.33
2017-01-13T10:29:58.298Z,5.35
2017-01-13T10:30:58.316Z,5.32
2017-01-13T10:31:58.347Z,5.32
2017-01-13T10:32:58.328Z,5.3
2017-01-13T10:33:58.341Z,5.29
2017-01-13T10:34:58.349Z,5.28
2017-01-13T10:35:58.370Z,5.3
2017-01-13T10:36:58.386Z,5.32
2017-01-13T10:37:58.781Z,5.32
2017-01-13T10:38:58.401Z,5.33
2017-01-13T10:39:58.411Z,5.3
2017-01-13T10:40:58.419Z,5.3
2017-01-13T10:41:58.825Z,5.32
2017-01-13T10:42:58.451Z,5.36
2017-01-13T10:43:58.461Z,5.2
2017-01-13T10:44:58.468Z,5.21
2017-01-13T10:45:58.478Z,5.25
2017-01-13T10:46:58.498Z,5.2
2017-01-13T10:47:58.509Z,5.26
2017-01-13T10:48:58.509Z,5.14
2017-01-13T10:49:58.524Z,5.18
2017-01-13T10:50:58.534Z,5.2
2017-01-13T10:51:58.550Z,5.25
2017-01-13T10:52:58.558Z,5.2
2017-01-13T10:53:58.565Z,5.18
2017-01-13T10:54:58.582Z,5.15
2017-01-13T10:55:58.589Z,5.2
2017-01-13T10:56:58.606Z,5.14
2017-01-13T10:57:58.614Z,5.14
2017-01-13T10:58:58.625Z,5.1
2017-01-13T10:59:58.640Z,5.14
2017-01-13T11:00:59.044Z,5.12
2017-01-13T11:01:58.664Z,5.11
2017-01-13T11:02:58.675Z,5.12
2017-01-13T11:03:58.681Z,5.1
2017-01-13T11:04:58.700Z,5.1
2017-01-13T11:05:58.706Z,5.07
2017-01-13T11:06:58.715Z,5.07
2017-01-13T11:07:58.723Z,5.04
2017-01-13T11:08:58.737Z,5.04
2017-01-13T11:09:58.742Z,5.1
2017-01-13T11:10:58.779Z,5.04
2017-01-13T11:11:58.768Z,5.02
2017-01-13T11:12:58.779Z,5.07
2017-01-13T11:13:58.818Z,5.07
2017-01-13T11:14:58.805Z,5.04
2017-01-13T11:15:58.827Z,5.07
2017-01-13T11:16:58.826Z,5
2017-01-13T11:17:58.845Z,4.96
2017-01-13T11:18:58.852Z,5.05
2017-01-13T11:19:58.879Z,4.93
2017-01-13T11:20:58.874Z,4.94
2017-01-13T11:21:58.884Z,5
2017-01-13T11:22:58.895Z,5
2017-01-13T11:23:58.917Z,5
2017-01-13T11:24:58.915Z,4.99
2017-01-13T11:25:58.945Z,5.04
2017-01-13T11:26:58.938Z,4.96
2017-01-13T11:27:58.965Z,4.93
2017-01-13T11:28:58.965Z,4.96
2017-01-13T11:29:58.981Z,4.93
2017-01-13T11:30:58.983Z,4.94
2017-01-13T11:31:59.008Z,4.84
2017-01-13T11:32:59.006Z,4.92
2017-01-13T11:33:59.026Z,4.9
2017-01-13T11:34:59.032Z,4.86
2017-01-13T11:35:59.058Z,4.82
2017-01-13T11:36:59.048Z,4.94
2017-01-13T11:37:59.061Z,4.82
2017-01-13T11:38:59.075Z,4.78
2017-01-13T11:39:59.090Z,4.8
2017-01-13T11:40:59.096Z,4.86
2017-01-13T11:41:59.106Z,4.86
2017-01-13T11:42:59.115Z,4.84
2017-01-13T11:43:59.131Z,4.86
2017-01-13T11:44:59.138Z,4.86
2017-01-13T11:45:59.148Z,4.77
2017-01-13T11:46:59.161Z,4.86
2017-01-13T11:47:59.179Z,4.84
2017-01-13T11:48:59.183Z,4.73
2017-01-13T11:49:59.191Z,4.67
2017-01-13T11:50:59.211Z,4.71
2017-01-13T11:51:59.214Z,4.67
2017-01-13T11:52:59.233Z,4.75
2017-01-13T11:53:59.236Z,4.67
2017-01-13T11:54:59.249Z,4.7
2017-01-13T11:55:59.263Z,4.63
2017-01-13T11:56:59.274Z,4.58
2017-01-13T11:57:59.285Z,4.58
2017-01-13T11:58:59.293Z,4.73
2017-01-13T11:59:59.304Z,4.56
2017-01-13T12:00:59.316Z,4.71
2017-01-13T12:01:59.331Z,4.58
2017-01-13T12:02:59.341Z,4.6
2017-01-13T12:03:59.345Z,4.56
2017-01-13T12:04:59.362Z,4.58
2017-01-13T12:05:59.367Z,4.58
2017-01-13T12:06:59.384Z,4.5
2017-01-13T12:07:59.393Z,4.52
2017-01-13T12:08:59.402Z,4.5
2017-01-13T12:09:59.419Z,4.5
2017-01-13T12:10:59.426Z,4.45
2017-01-13T12:11:59.432Z,4.56
2017-01-13T12:12:59.454Z,4.49
2017-01-13T12:13:59.456Z,4.48
2017-01-13T12:14:59.467Z,4.56
2017-01-13T12:15:59.479Z,4.48
2017-01-13T12:16:59.491Z,4.5
2017-01-13T12:17:59.495Z,4.48
2017-01-13T12:18:59.511Z,4.45
2017-01-13T12:19:59.522Z,4.45
2017-01-13T12:20:59.536Z,4.48
2017-01-13T12:21:59.544Z,4.41
2017-01-13T12:22:59.560Z,4.48
2017-01-13T12:23:59.568Z,4.44
2017-01-13T12:24:59.576Z,4.49
2017-01-13T12:25:59.594Z,4.5
2017-01-13T12:26:59.992Z,4.38
2017-01-13T12:27:59.608Z,4.5
2017-01-13T12:28:59.621Z,4.44
2017-01-13T12:29:59.631Z,4.34
2017-01-13T12:30:59.641Z,4.44
2017-01-13T12:31:59.652Z,4.42
2017-01-13T12:32:59.674Z,4.42
2017-01-13T12:33:59.686Z,4.41
2017-01-13T12:34:59.687Z,4.45
2017-01-13T12:35:59.698Z,4.45
2017-01-13T12:36:59.713Z,4.44
2017-01-13T12:37:59.722Z,4.49
2017-01-13T12:38:59.731Z,4.52
2017-01-13T12:39:59.778Z,4.48
2017-01-13T12:40:59.747Z,4.5
2017-01-13T12:41:59.757Z,4.5
2017-01-13T12:42:59.772Z,4.49
2017-01-13T12:43:59.783Z,4.52
2017-01-13T12:44:59.792Z,4.55
2017-01-13T12:45:59.805Z,4.56
2017-01-13T12:46:59.813Z,4.58
2017-01-13T12:47:59.830Z,4.5
2017-01-13T12:48:59.834Z,4.5
2017-01-13T12:49:59.845Z,4.5
2017-01-13T12:50:59.867Z,4.49
2017-01-13T12:51:59.870Z,4.49
2017-01-13T12:52:59.877Z,4.53
2017-01-13T12:53:59.887Z,4.44
2017-01-13T12:54:59.900Z,4.53
2017-01-13T12:55:59.908Z,4.44
2017-01-13T12:56:59.933Z,4.48
2017-01-13T12:57:59.935Z,4.48
2017-01-13T12:58:59.945Z,4.5
2017-01-13T12:59:59.957Z,4.53
2017-01-13T13:00:59.967Z,4.58
2017-01-13T13:01:59.971Z,4.55
2017-01-13T13:02:59.992Z,4.56
2017-01-13T13:03:59.998Z,4.58
2017-01-13T13:05:00.010Z,4.56
2017-01-13T13:06:00.021Z,4.56
2017-01-13T13:07:00.028Z,4.59
2017-01-13T13:08:00.039Z,4.59
2017-01-13T13:09:00.053Z,4.56
2017-01-13T13:10:00.072Z,4.66
2017-01-13T13:11:00.072Z,4.62
2017-01-13T13:12:00.085Z,4.63
2017-01-13T13:13:00.093Z,4.58
2017-01-13T13:14:00.106Z,4.58
2017-01-13T13:15:00.117Z,4.63
2017-01-13T13:16:00.128Z,4.6
2017-01-13T13:17:00.134Z,4.6
2017-01-13T13:18:00.146Z,4.59
2017-01-13T13:19:00.161Z,4.59
2017-01-13T13:20:00.168Z,4.58
2017-01-13T13:21:00.182Z,4.59
2017-01-13T13:22:00.188Z,4.6